createdAt,value
2018-05-06T00:01:28.057Z,93439.46
2018-05-06T00:03:55.632Z,93444.38
2018-05-06T00:06:23.163Z,93437.38
2018-05-06T00:08:50.710Z,93439.71
2018-05-06T00:11:18.715Z,93442.53
2018-05-06T00:13:46.270Z,93432.73
2018-05-06T00:16:13.820Z,93431.02
2018-05-06T00:18:41.523Z,93425.99
2018-05-06T00:21:09.059Z,93426.69
2018-05-06T00:23:36.610Z,93419.39
2018-05-06T00:26:04.342Z,93415.41
2018-05-06T00:28:31.896Z,93420.50
2018-05-06T00:30:59.434Z,93416.37
2018-05-06T00:33:27.029Z,93417.78
2018-05-06T00:35:54.584Z,93424.90
2018-05-06T00:38:22.127Z,93428.77
2018-05-06T00:40:49.839Z,93422.73
2018-05-06T00:43:17.400Z,93416.59
2018-05-06T00:45:44.936Z,93415.73
2018-05-06T00:48:12.505Z,93411.38
2018-05-06T00:50:40.051Z,93414.91
2018-05-06T00:53:07.602Z,93417.52
2018-05-06T00:55:35.279Z,93410.51
2018-05-06T00:58:02.825Z,93409.76
2018-05-06T01:00:30.372Z,93414.11
2018-05-06T01:02:57.992Z,93416.83
2018-05-06T01:05:25.535Z,93422.30
2018-05-06T01:07:53.073Z,93419.20
2018-05-06T01:10:20.794Z,93418.77
2018-05-06T01:12:48.335Z,93417.20
2018-05-06T01:15:15.881Z,93420.84
2018-05-06T01:17:43.649Z,93414.69
2018-05-06T01:20:11.183Z,93414.31
2018-05-06T01:22:38.718Z,93420.02
2018-05-06T01:25:06.301Z,93411.69
2018-05-06T01:27:33.845Z,93420.22
2018-05-06T01:30:01.397Z,93417.93
2018-05-06T01:32:29.768Z,93418.86
2018-05-06T01:34:57.303Z,93417.36
2018-05-06T01:37:24.833Z,93412.81
2018-05-06T01:39:52.535Z,93402.31
2018-05-06T01:42:20.078Z,93396.84
2018-05-06T01:44:47.620Z,93400.46
2018-05-06T01:47:15.327Z,93402.28
2018-05-06T01:49:42.871Z,93397.66
2018-05-06T01:52:10.424Z,93399.89
2018-05-06T01:54:38.316Z,93395.31
2018-05-06T01:57:05.842Z,93399.72
2018-05-06T01:59:33.383Z,93396.41
2018-05-06T02:02:01.112Z,93393.95
2018-05-06T02:04:28.646Z,93396.68
2018-05-06T02:06:56.190Z,93394.42
2018-05-06T02:09:24.086Z,93401.26
2018-05-06T02:11:51.637Z,93396.68
2018-05-06T02:14:19.175Z,93402.77
2018-05-06T02:16:46.706Z,93403.44
2018-05-06T02:19:14.244Z,93404.56
2018-05-06T02:21:41.803Z,93404.59
2018-05-06T02:24:09.350Z,93403.27
2018-05-06T02:26:36.901Z,93397.27
2018-05-06T02:29:05.537Z,93399.09
2018-05-06T02:31:33.083Z,93399.87
2018-05-06T02:34:00.652Z,93394.48
2018-05-06T02:36:28.230Z,93391.66
2018-05-06T02:38:55.768Z,93392.59
2018-05-06T02:41:23.304Z,93388.23
2018-05-06T02:43:51.018Z,93395.12
2018-05-06T02:46:18.564Z,93390.05
2018-05-06T02:48:46.124Z,93394.16
2018-05-06T02:51:13.713Z,93381.50
2018-05-06T02:53:41.257Z,93388.58
2018-05-06T02:56:08.801Z,93384.44
2018-05-06T02:58:36.372Z,93383.28
2018-05-06T03:01:03.916Z,93377.75
2018-05-06T03:03:31.454Z,93383.60
2018-05-06T03:05:59.168Z,93381.11
2018-05-06T03:08:26.696Z,93378.98
2018-05-06T03:10:54.228Z,93371.00
2018-05-06T03:13:21.812Z,93379.30
2018-05-06T03:15:49.359Z,93378.86
2018-05-06T03:18:16.904Z,93381.84
2018-05-06T03:20:44.465Z,93381.66
2018-05-06T03:23:12.007Z,93383.89
2018-05-06T03:25:39.565Z,93389.52
2018-05-06T03:28:07.124Z,93389.22
2018-05-06T03:30:34.684Z,93395.97
2018-05-06T03:33:02.233Z,93393.43
2018-05-06T03:35:29.918Z,93398.77
2018-05-06T03:37:57.457Z,93392.25
2018-05-06T03:40:24.992Z,93396.67
2018-05-06T03:42:52.584Z,93391.41
2018-05-06T03:45:20.128Z,93385.58
2018-05-06T03:47:47.679Z,93381.45
2018-05-06T03:50:15.251Z,93384.94
2018-05-06T03:52:42.789Z,93385.07
2018-05-06T03:55:10.346Z,93381.79
2018-05-06T03:57:49.861Z,93388.97
2018-05-06T04:00:29.058Z,93381.70
2018-05-06T04:02:56.606Z,93383.67
2018-05-06T04:05:24.162Z,93380.38
2018-05-06T04:07:51.711Z,93378.78
2018-05-06T04:10:19.442Z,93377.91
2018-05-06T04:12:47.030Z,93370.30
2018-05-06T04:15:14.608Z,93369.70
2018-05-06T04:17:42.343Z,93378.70
2018-05-06T04:20:09.891Z,93378.28
2018-05-06T04:22:37.425Z,93378.44
2018-05-06T04:25:05.160Z,93380.83
2018-05-06T04:27:32.704Z,93384.05
2018-05-06T04:30:01.149Z,93377.23
2018-05-06T04:32:28.733Z,93381.27
2018-05-06T04:34:56.303Z,93387.83
2018-05-06T04:37:23.846Z,93386.89
2018-05-06T04:39:51.551Z,93384.53
2018-05-06T04:42:19.086Z,93386.01
2018-05-06T04:44:46.631Z,93383.08
2018-05-06T04:47:14.204Z,93385.27
2018-05-06T04:49:41.754Z,93384.28
2018-05-06T04:52:09.290Z,93381.22
2018-05-06T04:54:37.188Z,93393.48
2018-05-06T04:57:05.016Z,93386.47
2018-05-06T04:59:32.551Z,93376.98
2018-05-06T05:02:00.160Z,93385.21
2018-05-06T05:04:27.699Z,93390.34
2018-05-06T05:06:55.245Z,93392.23
2018-05-06T05:09:23.300Z,93397.79
2018-05-06T05:11:50.857Z,93410.74
2018-05-06T05:14:18.402Z,93411.48
2018-05-06T05:16:45.948Z,93407.86
2018-05-06T05:19:13.503Z,93407.36
2018-05-06T05:21:41.070Z,93410.80
2018-05-06T05:24:08.624Z,93411.91
2018-05-06T05:26:36.161Z,93415.58
2018-05-06T05:29:03.753Z,93417.09
2018-05-06T05:31:31.291Z,93419.89
2018-05-06T05:33:58.837Z,93421.57
2018-05-06T05:36:26.567Z,93429.81
2018-05-06T05:38:54.115Z,93430.45
2018-05-06T05:41:21.667Z,93431.20
2018-05-06T05:43:49.285Z,93433.30
2018-05-06T05:46:16.840Z,93440.34
2018-05-06T05:48:44.395Z,93439.00
2018-05-06T05:51:12.409Z,93445.25
2018-05-06T05:53:39.956Z,93445.86
2018-05-06T05:56:07.501Z,93450.62
2018-05-06T05:58:35.079Z,93459.23
2018-05-06T06:01:02.610Z,93456.71
2018-05-06T06:03:30.172Z,93455.27
2018-05-06T06:05:57.746Z,93450.34
2018-05-06T06:08:25.303Z,93453.70
2018-05-06T06:10:52.890Z,93447.97
2018-05-06T06:13:20.563Z,93444.77
2018-05-06T06:15:48.110Z,93449.52
2018-05-06T06:18:15.672Z,93452.34
2018-05-06T06:20:43.253Z,93451.13
2018-05-06T06:23:10.810Z,93437.08
2018-05-06T06:25:38.379Z,93442.03
2018-05-06T06:28:05.956Z,93443.34
2018-05-06T06:30:33.511Z,93444.82
2018-05-06T06:33:01.046Z,93450.94
2018-05-06T06:35:28.796Z,93451.84
2018-05-06T06:37:56.347Z,93450.38
2018-05-06T06:40:23.888Z,93457.08
2018-05-06T06:42:51.623Z,93455.55
2018-05-06T06:45:19.172Z,93452.22
2018-05-06T06:47:46.738Z,93451.34
2018-05-06T06:50:14.400Z,93449.83
2018-05-06T06:52:41.952Z,93456.47
2018-05-06T06:55:09.508Z,93457.11
2018-05-06T06:57:37.102Z,93455.00
2018-05-06T07:00:04.700Z,93457.52
2018-05-06T07:02:32.252Z,93458.80
2018-05-06T07:04:59.840Z,93457.00
2018-05-06T07:07:27.386Z,93456.02
2018-05-06T07:09:54.936Z,93461.75
2018-05-06T07:12:22.526Z,93468.30
2018-05-06T07:14:50.068Z,93468.62
2018-05-06T07:17:17.612Z,93472.62
2018-05-06T07:19:45.195Z,93464.44
2018-05-06T07:22:12.731Z,93471.02
2018-05-06T07:24:40.312Z,93466.57
2018-05-06T07:27:08.661Z,93464.84
2018-05-06T07:29:36.220Z,93467.78
2018-05-06T07:32:03.776Z,93468.59
2018-05-06T07:34:31.342Z,93468.87
2018-05-06T07:36:58.884Z,93463.94
2018-05-06T07:39:26.430Z,93465.14
2018-05-06T07:41:54.004Z,93464.59
2018-05-06T07:44:21.552Z,93461.30
2018-05-06T07:46:49.101Z,93461.72
2018-05-06T07:49:16.659Z,93460.46
2018-05-06T07:51:44.200Z,93468.64
2018-05-06T07:54:11.760Z,93471.61
2018-05-06T07:56:39.519Z,93470.47
2018-05-06T07:59:07.080Z,93467.42
2018-05-06T08:01:34.632Z,93473.04
2018-05-06T08:04:02.205Z,93464.17
2018-05-06T08:06:29.758Z,93475.55
2018-05-06T08:08:57.308Z,93465.42
2018-05-06T08:11:24.882Z,93465.06
2018-05-06T08:13:52.424Z,93464.98
2018-05-06T08:16:19.986Z,93464.28
2018-05-06T08:18:48.015Z,93462.12
2018-05-06T08:21:15.585Z,93466.12
2018-05-06T08:23:43.135Z,93460.31
2018-05-06T08:26:10.711Z,93463.28
2018-05-06T08:28:38.286Z,93461.98
2018-05-06T08:31:05.918Z,93461.92
2018-05-06T08:33:33.471Z,93466.95
2018-05-06T08:36:01.008Z,93461.79
2018-05-06T08:38:28.590Z,93462.14
2018-05-06T08:40:56.187Z,93459.58
2018-05-06T08:43:23.745Z,93461.37
2018-05-06T08:45:51.348Z,93456.64
2018-05-06T08:48:18.909Z,93450.22
2018-05-06T08:50:46.510Z,93450.40
2018-05-06T08:53:14.091Z,93445.39
2018-05-06T08:55:41.842Z,93445.80
2018-05-06T08:58:09.409Z,93443.78
2018-05-06T09:00:37.003Z,93444.73
2018-05-06T09:03:04.595Z,93442.85
2018-05-06T09:05:32.141Z,93438.69
2018-05-06T09:07:59.690Z,93442.23
2018-05-06T09:10:27.432Z,93435.95
2018-05-06T09:12:55.039Z,93427.47
2018-05-06T09:15:22.635Z,93426.30
2018-05-06T09:17:50.184Z,93421.95
2018-05-06T09:20:17.742Z,93414.77
2018-05-06T09:22:45.334Z,93422.14
2018-05-06T09:25:12.896Z,93413.15
2018-05-06T09:27:40.458Z,93405.81
2018-05-06T09:30:08.044Z,93404.56
2018-05-06T09:32:35.608Z,93399.89
2018-05-06T09:35:03.181Z,93396.25
2018-05-06T09:37:30.914Z,93390.21
2018-05-06T09:39:58.489Z,93388.73
2018-05-06T09:42:26.039Z,93390.49
2018-05-06T09:44:53.659Z,93399.38
2018-05-06T09:47:21.213Z,93385.62
2018-05-06T09:49:48.765Z,93383.83
2018-05-06T09:52:16.623Z,93373.58
2018-05-06T09:54:44.177Z,93379.69
2018-05-06T09:57:12.278Z,93371.84
2018-05-06T09:59:40.004Z,93370.47
2018-05-06T10:02:07.577Z,93368.80
2018-05-06T10:04:35.137Z,93365.49
2018-05-06T10:07:02.874Z,93360.55
2018-05-06T10:09:30.452Z,93356.97
2018-05-06T10:11:58.010Z,93354.00
2018-05-06T10:14:25.694Z,93360.77
2018-05-06T10:16:53.248Z,93357.27
2018-05-06T10:19:20.803Z,93354.52
2018-05-06T10:21:48.403Z,93353.06
2018-05-06T10:24:15.953Z,93341.77
2018-05-06T10:26:43.526Z,93339.55
2018-05-06T10:29:11.564Z,93335.04
2018-05-06T10:31:39.114Z,93346.20
2018-05-06T10:34:06.681Z,93343.70
2018-05-06T10:36:34.591Z,93340.75
2018-05-06T10:39:02.145Z,93342.58
2018-05-06T10:41:29.694Z,93342.53
2018-05-06T10:43:57.422Z,93344.05
2018-05-06T10:46:24.901Z,93342.88
2018-05-06T10:48:52.478Z,93342.20
2018-05-06T10:51:20.285Z,93338.58
2018-05-06T10:53:47.845Z,93333.39
2018-05-06T10:56:15.395Z,93329.23
2018-05-06T10:58:43.136Z,93335.80
2018-05-06T11:01:10.704Z,93330.14
2018-05-06T11:03:38.253Z,93332.55
2018-05-06T11:06:06.103Z,93315.28
2018-05-06T11:08:33.682Z,93326.05
2018-05-06T11:11:01.254Z,93323.08
2018-05-06T11:13:29.191Z,93319.45
2018-05-06T11:15:56.754Z,93315.72
2018-05-06T11:18:24.309Z,93307.06
2018-05-06T11:20:52.017Z,93313.70
2018-05-06T11:23:19.603Z,93301.58
2018-05-06T11:25:47.153Z,93309.86
2018-05-06T11:28:14.758Z,93304.34
2018-05-06T11:30:42.334Z,93313.79
2018-05-06T11:33:09.909Z,93310.55
2018-05-06T11:35:37.994Z,93328.13
2018-05-06T11:38:05.544Z,93311.39
2018-05-06T11:40:33.098Z,93306.72
2018-05-06T11:43:00.843Z,93329.48
2018-05-06T11:45:28.391Z,93303.71
2018-05-06T11:47:55.950Z,93308.16
2018-05-06T11:50:23.690Z,93309.32
2018-05-06T11:52:51.248Z,93298.44
2018-05-06T11:55:18.803Z,93301.77
2018-05-06T11:57:46.433Z,93300.52
2018-05-06T12:00:13.990Z,93300.59
2018-05-06T12:02:41.540Z,93312.38
2018-05-06T12:05:09.119Z,93298.05
2018-05-06T12:07:36.713Z,93301.59
2018-05-06T12:10:04.315Z,93302.65
2018-05-06T12:12:31.993Z,93295.81
2018-05-06T12:14:59.551Z,93296.42
2018-05-06T12:17:27.120Z,93304.05
2018-05-06T12:19:54.693Z,93294.36
2018-05-06T12:22:22.284Z,93295.02
2018-05-06T12:24:49.850Z,93298.40
2018-05-06T12:27:17.433Z,93300.03
2018-05-06T12:29:44.997Z,93289.78
2018-05-06T12:32:12.554Z,93296.10
2018-05-06T12:34:40.281Z,93291.42
2018-05-06T12:37:07.881Z,93287.55
2018-05-06T12:39:35.451Z,93278.42
2018-05-06T12:42:03.090Z,93280.31
2018-05-06T12:44:30.740Z,93279.64
2018-05-06T12:46:58.298Z,93273.26
2018-05-06T12:49:25.910Z,93266.67
2018-05-06T12:51:53.509Z,93268.15
2018-05-06T12:54:21.065Z,93269.56
2018-05-06T12:56:48.646Z,93260.83
2018-05-06T12:59:16.195Z,93261.88
2018-05-06T13:01:43.745Z,93261.20
2018-05-06T13:04:11.676Z,93252.28
2018-05-06T13:06:39.237Z,93246.69
2018-05-06T13:09:06.867Z,93242.08
2018-05-06T13:11:34.461Z,93239.73
2018-05-06T13:14:02.014Z,93235.59
2018-05-06T13:16:29.570Z,93235.66
2018-05-06T13:18:57.301Z,93238.49
2018-05-06T13:21:24.859Z,93244.31
2018-05-06T13:23:52.417Z,93236.89
2018-05-06T13:26:20.162Z,93250.15
2018-05-06T13:28:47.750Z,93244.61
2018-05-06T13:31:15.353Z,93247.11
2018-05-06T13:33:42.960Z,93253.69
2018-05-06T13:36:10.513Z,93259.38
2018-05-06T13:38:38.122Z,93241.58
2018-05-06T13:41:05.842Z,93242.09
2018-05-06T13:43:33.440Z,93239.08
2018-05-06T13:46:00.988Z,93245.09
2018-05-06T13:48:28.698Z,93235.44
2018-05-06T13:50:56.286Z,93246.34
2018-05-06T13:53:23.847Z,93237.19
2018-05-06T13:55:51.689Z,93228.40
2018-05-06T13:58:19.241Z,93227.13
2018-05-06T14:00:46.793Z,93232.22
2018-05-06T14:03:14.551Z,93248.13
2018-05-06T14:05:42.088Z,93232.09
2018-05-06T14:08:09.632Z,93232.63
2018-05-06T14:10:37.291Z,93226.75
2018-05-06T14:13:04.839Z,93231.16
2018-05-06T14:15:32.379Z,93240.70
2018-05-06T14:17:59.920Z,93241.34
2018-05-06T14:20:27.485Z,93234.34
2018-05-06T14:22:55.095Z,93237.09
2018-05-06T14:25:22.651Z,93247.06
2018-05-06T14:27:50.199Z,93253.03
2018-05-06T14:30:17.923Z,93246.88
2018-05-06T14:32:45.484Z,93255.08
2018-05-06T14:35:13.045Z,93264.62
2018-05-06T14:37:40.657Z,93269.41
2018-05-06T14:40:08.204Z,93262.27
2018-05-06T14:42:35.737Z,93264.21
2018-05-06T14:45:03.506Z,93270.44
2018-05-06T14:47:42.676Z,93269.64
2018-05-06T14:50:10.805Z,93265.06
2018-05-06T14:52:38.344Z,93273.45
2018-05-06T14:55:05.977Z,93272.25
2018-05-06T14:57:33.669Z,93268.98
2018-05-06T15:00:01.244Z,93272.94
2018-05-06T15:02:28.784Z,93275.28
2018-05-06T15:04:56.511Z,93274.73
2018-05-06T15:07:24.063Z,93265.59
2018-05-06T15:09:51.603Z,93262.29
2018-05-06T15:12:19.300Z,93258.55
2018-05-06T15:14:46.839Z,93270.61
2018-05-06T15:17:14.401Z,93262.33
2018-05-06T15:19:41.982Z,93264.52
2018-05-06T15:22:09.535Z,93270.65
2018-05-06T15:24:37.080Z,93270.35
2018-05-06T15:27:04.821Z,93265.66
2018-05-06T15:29:32.409Z,93265.48
2018-05-06T15:31:59.959Z,93267.27
2018-05-06T15:34:27.543Z,93268.61
2018-05-06T15:36:55.095Z,93271.13
2018-05-06T15:39:22.636Z,93283.00
2018-05-06T15:41:50.256Z,93279.98
2018-05-06T15:44:17.811Z,93269.70
2018-05-06T15:46:45.372Z,93257.50
2018-05-06T15:49:13.179Z,93274.34
2018-05-06T15:51:40.789Z,93273.11
2018-05-06T15:54:08.457Z,93284.67
2018-05-06T15:56:36.166Z,93275.43
2018-05-06T15:59:03.748Z,93269.42
2018-05-06T16:01:31.332Z,93263.91
2018-05-06T16:04:10.693Z,93261.70
2018-05-06T16:06:38.292Z,93258.94
2018-05-06T16:09:05.875Z,93251.20
2018-05-06T16:11:33.604Z,93256.70
2018-05-06T16:14:01.170Z,93270.16
2018-05-06T16:16:28.732Z,93278.76
2018-05-06T16:18:56.373Z,93283.19
2018-05-06T16:21:24.048Z,93295.45
2018-05-06T16:23:51.602Z,93298.74
2018-05-06T16:26:19.327Z,93313.84
2018-05-06T16:28:46.888Z,93317.52
2018-05-06T16:31:14.490Z,93323.06
2018-05-06T16:33:42.354Z,93330.19
2018-05-06T16:36:09.922Z,93349.38
2018-05-06T16:38:37.499Z,93344.73
2018-05-06T16:41:05.128Z,93342.17
2018-05-06T16:43:32.711Z,93331.77
2018-05-06T16:46:00.275Z,93346.61
2018-05-06T16:48:27.934Z,93343.33
2018-05-06T16:50:55.487Z,93338.61
2018-05-06T16:53:23.038Z,93348.39
2018-05-06T16:55:51.417Z,93346.87
2018-05-06T16:58:18.963Z,93361.04
2018-05-06T17:00:46.508Z,93358.38
2018-05-06T17:03:14.102Z,93371.28
2018-05-06T17:05:41.689Z,93375.22
2018-05-06T17:08:09.296Z,93366.62
2018-05-06T17:10:36.893Z,93344.33
2018-05-06T17:13:05.350Z,93322.65
2018-05-06T17:15:32.882Z,93332.42
2018-05-06T17:18:00.444Z,93392.03
2018-05-06T17:20:28.010Z,93487.48
2018-05-06T17:22:55.603Z,93539.96
2018-05-06T17:25:23.167Z,93571.12
2018-05-06T17:27:50.741Z,93580.84
2018-05-06T17:30:18.521Z,93566.96
2018-05-06T17:32:46.088Z,93563.83
2018-05-06T17:35:13.727Z,93564.31
2018-05-06T17:37:41.340Z,93558.98
2018-05-06T17:40:08.982Z,93557.95
2018-05-06T17:42:36.569Z,93558.72
2018-05-06T17:45:04.378Z,93551.98
2018-05-06T17:47:31.962Z,93543.22
2018-05-06T17:49:59.557Z,93539.48
2018-05-06T17:52:27.398Z,93533.89
2018-05-06T17:54:54.993Z,93531.58
2018-05-06T17:57:22.544Z,93527.20
2018-05-06T17:59:50.296Z,93530.59
2018-05-06T18:02:17.877Z,93528.54
2018-05-06T18:04:45.434Z,93536.98
2018-05-06T18:07:13.026Z,93538.83
2018-05-06T18:09:40.584Z,93528.30
2018-05-06T18:12:08.228Z,93527.10
2018-05-06T18:14:35.837Z,93528.13
2018-05-06T18:17:03.389Z,93521.83
2018-05-06T18:19:30.988Z,93519.55
2018-05-06T18:21:58.650Z,93522.55
2018-05-06T18:24:26.201Z,93536.80
2018-05-06T18:26:53.756Z,93535.27
2018-05-06T18:29:21.486Z,93550.05
2018-05-06T18:31:49.072Z,93556.70
2018-05-06T18:34:16.631Z,93550.78
2018-05-06T18:36:44.326Z,93531.77
2018-05-06T18:39:11.888Z,93505.94
2018-05-06T18:41:39.458Z,93512.17
2018-05-06T18:44:07.182Z,93508.97
2018-05-06T18:46:34.772Z,93501.35
2018-05-06T18:49:02.344Z,93500.63
2018-05-06T18:51:30.106Z,93492.91
2018-05-06T18:53:57.687Z,93491.98
2018-05-06T18:56:25.245Z,93478.82
2018-05-06T18:58:52.870Z,93480.39
2018-05-06T19:01:20.431Z,93488.77
2018-05-06T19:03:48.001Z,93492.56
2018-05-06T19:06:15.762Z,93491.67
2018-05-06T19:08:43.302Z,93482.41
2018-05-06T19:11:10.881Z,93490.52
2018-05-06T19:13:38.555Z,93495.12
2018-05-06T19:16:06.119Z,93507.98
2018-05-06T19:18:33.707Z,93516.22
2018-05-06T19:21:01.313Z,93518.62
2018-05-06T19:23:28.909Z,93520.66
2018-05-06T19:25:56.518Z,93519.88
2018-05-06T19:28:24.121Z,93520.30
2018-05-06T19:30:51.761Z,93526.97
2018-05-06T19:33:19.325Z,93529.70
2018-05-06T19:35:46.971Z,93530.85
2018-05-06T19:38:14.554Z,93534.81
2018-05-06T19:40:42.111Z,93538.34
2018-05-06T19:43:09.680Z,93538.91
2018-05-06T19:45:37.233Z,93535.42
2018-05-06T19:48:04.814Z,93533.51
2018-05-06T19:50:32.643Z,93533.62
2018-05-06T19:53:00.164Z,93535.87
2018-05-06T19:55:27.722Z,93531.97
2018-05-06T19:57:55.646Z,93530.63
2018-05-06T20:00:23.203Z,93529.41
2018-05-06T20:02:50.738Z,93528.14
2018-05-06T20:05:18.329Z,93529.95
2018-05-06T20:07:45.891Z,93526.31
2018-05-06T20:10:13.465Z,93525.62
2018-05-06T20:12:41.469Z,93524.38
2018-05-06T20:15:09.022Z,93525.64
2018-05-06T20:17:36.570Z,93527.19
2018-05-06T20:20:04.725Z,93535.50
2018-05-06T20:22:32.276Z,93544.92
2018-05-06T20:24:59.826Z,93548.86
2018-05-06T20:27:27.405Z,93548.00
2018-05-06T20:29:54.950Z,93548.11
2018-05-06T20:32:22.514Z,93548.63
2018-05-06T20:34:50.113Z,93557.09
2018-05-06T20:37:17.671Z,93569.34
2018-05-06T20:39:45.231Z,93568.73
2018-05-06T20:42:12.972Z,93574.34
2018-05-06T20:44:40.547Z,93568.20
2018-05-06T20:47:08.110Z,93568.83
2018-05-06T20:49:35.784Z,93588.27
2018-05-06T20:52:03.405Z,93579.98
2018-05-06T20:54:30.976Z,93577.24
2018-05-06T20:56:58.571Z,93576.39
2018-05-06T20:59:26.143Z,93578.13
2018-05-06T21:01:53.711Z,93610.88
2018-05-06T21:04:21.307Z,93608.72
2018-05-06T21:06:48.871Z,93585.88
2018-05-06T21:09:16.431Z,93583.10
2018-05-06T21:11:44.106Z,93573.90
2018-05-06T21:14:11.655Z,93567.74
2018-05-06T21:16:39.208Z,93564.49
2018-05-06T21:19:06.830Z,93552.96
2018-05-06T21:21:34.330Z,93554.47
2018-05-06T21:24:02.039Z,93547.35
2018-05-06T21:26:29.596Z,93539.80
2018-05-06T21:28:57.161Z,93544.62
2018-05-06T21:31:24.904Z,93551.22
2018-05-06T21:33:53.852Z,93567.15
2018-05-06T21:36:21.408Z,93564.24
2018-05-06T21:38:48.998Z,93552.95
2018-05-06T21:41:16.536Z,93552.09
2018-05-06T21:43:44.096Z,93549.33
2018-05-06T21:46:11.690Z,93561.44
2018-05-06T21:48:40.098Z,93565.77
2018-05-06T21:51:07.645Z,93575.21
2018-05-06T21:53:35.229Z,93576.67
2018-05-06T21:56:02.781Z,93578.93
2018-05-06T21:58:30.324Z,93574.31
2018-05-06T22:00:57.940Z,93575.98
2018-05-06T22:03:26.293Z,93574.69
2018-05-06T22:05:53.836Z,93573.08
2018-05-06T22:08:21.430Z,93572.06
2018-05-06T22:10:48.979Z,93565.36
2018-05-06T22:13:16.544Z,93568.68
2018-05-06T22:15:44.128Z,93573.95
2018-05-06T22:18:11.704Z,93569.98
2018-05-06T22:20:39.268Z,93557.36
2018-05-06T22:23:06.943Z,93566.22
2018-05-06T22:25:34.427Z,93559.86
2018-05-06T22:28:01.977Z,93556.82
2018-05-06T22:30:29.713Z,93548.84
2018-05-06T22:32:57.275Z,93547.75
2018-05-06T22:35:24.828Z,93553.12
2018-05-06T22:37:52.413Z,93553.08
2018-05-06T22:40:19.980Z,93550.06
2018-05-06T22:42:47.547Z,93541.11
2018-05-06T22:45:15.121Z,93530.34
2018-05-06T22:47:42.666Z,93533.73
2018-05-06T22:50:10.214Z,93536.33
2018-05-06T22:52:37.787Z,93532.98
2018-05-06T22:55:05.343Z,93529.59
2018-05-06T22:57:32.919Z,93517.11
2018-05-06T23:00:00.678Z,93519.53
2018-05-06T23:02:28.239Z,93517.77
2018-05-06T23:04:55.804Z,93513.45
2018-05-06T23:07:23.524Z,93516.84
2018-05-06T23:09:51.082Z,93516.77
2018-05-06T23:12:18.611Z,93515.67
2018-05-06T23:14:46.279Z,93514.65
2018-05-06T23:17:13.806Z,93516.16
2018-05-06T23:19:41.340Z,93518.89
2018-05-06T23:22:08.963Z,93516.36
2018-05-06T23:24:36.517Z,93519.34
2018-05-06T23:27:04.055Z,93519.03
2018-05-06T23:29:31.620Z,93524.98
2018-05-06T23:31:59.162Z,93528.53
2018-05-06T23:34:26.708Z,93537.67
2018-05-06T23:36:54.604Z,93537.53
2018-05-06T23:39:22.150Z,93528.53
2018-05-06T23:41:49.679Z,93527.75
2018-05-06T23:44:17.259Z,93535.27
2018-05-06T23:46:44.820Z,93531.45
2018-05-06T23:49:12.368Z,93542.79
2018-05-06T23:51:40.277Z,93543.88
2018-05-06T23:54:07.815Z,93540.67
2018-05-06T23:56:35.361Z,93543.23
2018-05-06T23:59:02.945Z,93543.82
